Time;durP1;ratioP1;P1;durP2;ratioP2;P2;SDS_P1;SDS_P2;PMS_P1;PMS_P2;Temp;Humidity;BMP_temperature;BMP_pressure;BME280_temperature;BME280_humidity;BME280_pressure;Samples;Min_cycle;Max_cycle;Signal;HPM_P1;HPM_P2
2022/03/18 00:01:14;;;;;;;23.20;9.65;;;;;;;;;;5048973;28;20044;-66
2022/03/18 00:03:41;;;;;;;18.73;8.07;;;;;;;;;;5067574;28;20051;-66
2022/03/18 00:06:07;;;;;;;16.13;7.95;;;;;;;;;;5048386;28;20115;-66
2022/03/18 00:08:33;;;;;;;21.98;8.30;;;;;;;;;;5066981;28;20032;-66
2022/03/18 00:11:00;;;;;;;16.70;7.22;;;;;;;;;;5066884;28;20055;-67
2022/03/18 00:13:26;;;;;;;15.88;7.15;;;;;;;;;;5067270;28;20374;-66
2022/03/18 00:15:54;;;;;;;17.50;7.68;;;;;;;;;;5050841;28;20044;-66
2022/03/18 00:18:20;;;;;;;19.63;7.38;;;;;;;;;;5070950;28;20036;-66
2022/03/18 00:20:46;;;;;;;15.75;7.13;;;;;;;;;;5053017;28;20072;-66
2022/03/18 00:23:13;;;;;;;18.20;7.10;;;;;;;;;;5069545;28;20489;-66
2022/03/18 00:25:39;;;;;;;15.82;7.70;;;;;;;;;;5070662;28;20032;-66
2022/03/18 00:28:05;;;;;;;17.48;7.53;;;;;;;;;;5051245;28;20040;-67
2022/03/18 00:30:32;;;;;;;18.17;7.97;;;;;;;;;;5052681;28;20049;-66
2022/03/18 00:32:58;;;;;;;19.77;7.68;;;;;;;;;;5052139;28;20086;-66
2022/03/18 00:35:24;;;;;;;17.33;7.90;;;;;;;;;;5053056;28;20270;-66
2022/03/18 00:37:50;;;;;;;18.10;8.38;;;;;;;;;;5051873;28;20488;-66
2022/03/18 00:40:16;;;;;;;17.17;7.35;;;;;;;;;;5052780;28;20044;-66
2022/03/18 00:42:42;;;;;;;17.08;6.90;;;;;;;;;;5050928;28;20044;-67
2022/03/18 00:45:08;;;;;;;16.45;7.13;;;;;;;;;;5052388;28;20128;-66
2022/03/18 00:53:05;;;;;;;17.95;7.78;;;;;;;;;;5051150;28;20051;-67
2022/03/18 00:55:31;;;;;;;15.75;7.43;;;;;;;;;;5051547;28;20036;-67
2022/03/18 00:57:57;;;;;;;18.70;7.63;;;;;;;;;;5033288;28;20052;-66
2022/03/18 01:00:23;;;;;;;19.23;7.00;;;;;;;;;;5050536;28;20055;-67
2022/03/18 01:02:49;;;;;;;15.38;6.95;;;;;;;;;;5051060;28;20538;-67
2022/03/18 01:05:15;;;;;;;16.40;6.88;;;;;;;;;;5048055;28;20041;-66
2022/03/18 01:07:41;;;;;;;17.77;6.72;;;;;;;;;;5068524;28;20043;-66
2022/03/18 01:10:07;;;;;;;14.38;6.72;;;;;;;;;;5050933;28;20412;-66
2022/03/18 01:12:33;;;;;;;15.90;7.30;;;;;;;;;;5049455;28;20453;-66
2022/03/18 01:14:59;;;;;;;15.43;7.03;;;;;;;;;;5069777;28;20060;-66
2022/03/18 01:17:25;;;;;;;17.33;7.10;;;;;;;;;;5033337;28;20044;-66
2022/03/18 01:19:51;;;;;;;16.48;7.20;;;;;;;;;;5051130;28;20165;-66
2022/03/18 01:22:17;;;;;;;16.90;6.72;;;;;;;;;;5068200;28;20041;-67
2022/03/18 01:24:44;;;;;;;15.77;6.20;;;;;;;;;;5051205;28;20131;-66
2022/03/18 01:27:10;;;;;;;13.82;6.47;;;;;;;;;;5049118;28;20072;-66
2022/03/18 01:29:36;;;;;;;14.50;6.88;;;;;;;;;;5050534;28;20036;-66
2022/03/18 01:32:02;;;;;;;15.02;6.82;;;;;;;;;;5068260;28;20032;-66
2022/03/18 01:34:28;;;;;;;15.57;6.60;;;;;;;;;;5069915;28;20445;-66
2022/03/18 01:36:54;;;;;;;15.63;6.68;;;;;;;;;;5052078;28;20040;-66
2022/03/18 01:39:22;;;;;;;13.05;6.35;;;;;;;;;;5051349;28;20108;-66
2022/03/18 01:41:49;;;;;;;10.60;5.90;;;;;;;;;;5068301;28;20076;-66
2022/03/18 01:44:15;;;;;;;14.85;7.28;;;;;;;;;;5050723;28;20052;-66
2022/03/18 01:46:42;;;;;;;12.48;6.72;;;;;;;;;;5050414;28;20052;-66
2022/03/18 01:49:08;;;;;;;14.40;6.18;;;;;;;;;;5050402;28;20139;-66
2022/03/18 01:51:35;;;;;;;16.05;6.05;;;;;;;;;;5069366;28;20111;-67
2022/03/18 01:56:46;;;;;;;18.15;6.80;;;;;;;;;;5068247;28;20046;-66
2022/03/18 01:59:13;;;;;;;18.95;7.22;;;;;;;;;;5068181;28;20044;-67
2022/03/18 02:01:39;;;;;;;14.30;7.03;;;;;;;;;;5032226;28;20439;-66
2022/03/18 02:04:05;;;;;;;14.43;7.15;;;;;;;;;;5047849;28;20032;-67
2022/03/18 02:06:32;;;;;;;15.18;7.13;;;;;;;;;;5066619;28;20135;-67
2022/03/18 02:08:58;;;;;;;10.10;5.97;;;;;;;;;;5049307;28;20147;-66
2022/03/18 02:11:27;;;;;;;11.18;5.97;;;;;;;;;;5050041;28;20056;-66
2022/03/18 02:13:57;;;;;;;15.00;6.70;;;;;;;;;;5068342;28;20485;-67
2022/03/18 02:16:23;;;;;;;14.23;6.85;;;;;;;;;;5050285;28;20102;-67
2022/03/18 02:18:49;;;;;;;16.83;7.63;;;;;;;;;;5049930;28;20101;-66
2022/03/18 02:21:16;;;;;;;15.13;6.93;;;;;;;;;;5049139;28;20123;-66
2022/03/18 02:23:43;;;;;;;12.43;6.80;;;;;;;;;;5049280;28;20048;-66
2022/03/18 02:26:13;;;;;;;13.52;7.25;;;;;;;;;;5050668;28;20048;-66
2022/03/18 02:28:39;;;;;;;20.60;8.15;;;;;;;;;;5066669;28;20548;-66
2022/03/18 02:31:05;;;;;;;16.00;7.20;;;;;;;;;;5048645;28;20108;-66
2022/03/18 02:33:31;;;;;;;14.63;8.07;;;;;;;;;;5049349;28;20036;-67
2022/03/18 02:35:58;;;;;;;15.88;7.60;;;;;;;;;;5067592;28;20049;-66
2022/03/18 02:38:24;;;;;;;17.25;7.30;;;;;;;;;;5048270;28;20059;-67
2022/03/18 02:40:50;;;;;;;16.17;7.15;;;;;;;;;;5067763;28;20033;-67
2022/03/18 02:43:16;;;;;;;14.20;6.93;;;;;;;;;;5050057;28;20477;-66
2022/03/18 02:45:42;;;;;;;19.63;7.32;;;;;;;;;;5066927;28;20048;-66
2022/03/18 02:48:08;;;;;;;16.55;6.22;;;;;;;;;;5045093;28;20049;-66
2022/03/18 02:50:35;;;;;;;13.70;6.78;;;;;;;;;;5047449;28;20056;-67
2022/03/18 02:53:02;;;;;;;16.60;7.00;;;;;;;;;;5047084;28;20079;-66
2022/03/18 02:55:28;;;;;;;11.82;6.32;;;;;;;;;;5044214;28;20413;-66
2022/03/18 02:57:54;;;;;;;16.13;6.82;;;;;;;;;;5045148;28;20106;-66
2022/03/18 03:00:25;;;;;;;14.65;7.05;;;;;;;;;;5047133;28;20029;-66
2022/03/18 03:02:51;;;;;;;13.07;6.78;;;;;;;;;;5045788;28;20120;-66
2022/03/18 03:08:02;;;;;;;15.98;6.90;;;;;;;;;;5045546;28;20094;-66
2022/03/18 03:10:33;;;;;;;16.35;6.68;;;;;;;;;;5046399;28;20499;-66
2022/03/18 03:13:01;;;;;;;16.45;6.78;;;;;;;;;;5043714;28;20068;-67
2022/03/18 03:15:27;;;;;;;14.00;6.82;;;;;;;;;;5045379;28;20041;-69
2022/03/18 03:17:53;;;;;;;16.15;6.88;;;;;;;;;;5046752;28;20045;-66
2022/03/18 03:20:19;;;;;;;20.20;7.93;;;;;;;;;;5045066;28;20049;-66
2022/03/18 03:22:45;;;;;;;12.73;7.18;;;;;;;;;;5043558;28;20103;-66
2022/03/18 03:25:11;;;;;;;15.23;7.00;;;;;;;;;;5046545;28;20041;-66
2022/03/18 03:27:38;;;;;;;14.32;6.65;;;;;;;;;;5046012;28;20068;-66
2022/03/18 03:30:05;;;;;;;14.90;7.10;;;;;;;;;;5045142;28;20297;-66
2022/03/18 03:32:32;;;;;;;13.23;6.57;;;;;;;;;;5043853;28;20125;-66
2022/03/18 03:34:58;;;;;;;12.93;5.93;;;;;;;;;;5045467;28;20041;-66
2022/03/18 03:37:25;;;;;;;13.93;7.03;;;;;;;;;;5046940;28;20037;-66
2022/03/18 03:39:51;;;;;;;12.98;6.70;;;;;;;;;;5044505;28;20037;-66
2022/03/18 03:42:18;;;;;;;14.02;6.88;;;;;;;;;;5044764;28;20044;-66
2022/03/18 03:44:44;;;;;;;15.35;6.55;;;;;;;;;;5045052;28;20128;-66
2022/03/18 03:47:10;;;;;;;15.13;6.30;;;;;;;;;;5046454;28;20079;-66
2022/03/18 03:49:36;;;;;;;16.88;6.43;;;;;;;;;;5047922;28;20605;-66
2022/03/18 03:52:02;;;;;;;13.52;6.50;;;;;;;;;;5047967;28;20495;-66
2022/03/18 03:54:28;;;;;;;15.52;6.65;;;;;;;;;;5066372;28;20066;-66
2022/03/18 03:56:55;;;;;;;15.95;6.20;;;;;;;;;;5065497;28;20044;-66
2022/03/18 03:59:21;;;;;;;16.27;7.10;;;;;;;;;;5065931;28;20505;-66
2022/03/18 04:01:47;;;;;;;20.08;7.55;;;;;;;;;;5064996;28;20426;-66
2022/03/18 04:04:13;;;;;;;17.52;7.43;;;;;;;;;;5048335;28;20146;-67
2022/03/18 04:06:39;;;;;;;15.00;6.65;;;;;;;;;;5048126;28;20053;-67
2022/03/18 04:09:05;;;;;;;13.25;7.28;;;;;;;;;;5048544;28;20049;-67
2022/03/18 04:11:31;;;;;;;14.00;8.15;;;;;;;;;;5048007;28;20505;-66
2022/03/18 04:13:57;;;;;;;14.10;7.28;;;;;;;;;;5048037;28;20507;-67
2022/03/18 04:16:24;;;;;;;16.27;7.00;;;;;;;;;;5048622;28;20036;-66
2022/03/18 04:18:50;;;;;;;17.75;7.55;;;;;;;;;;5046407;28;20048;-66
2022/03/18 04:21:16;;;;;;;12.07;7.70;;;;;;;;;;5047811;28;20076;-67
2022/03/18 04:23:42;;;;;;;14.05;6.70;;;;;;;;;;5049023;28;20040;-67
2022/03/18 04:26:08;;;;;;;16.90;7.43;;;;;;;;;;5066200;28;20041;-67
2022/03/18 04:28:34;;;;;;;12.82;7.72;;;;;;;;;;5048271;28;20063;-67
2022/03/18 04:31:00;;;;;;;18.65;7.95;;;;;;;;;;5065737;28;20041;-67
2022/03/18 04:33:27;;;;;;;16.80;7.72;;;;;;;;;;5047441;28;20110;-67
2022/03/18 04:35:53;;;;;;;18.10;8.07;;;;;;;;;;5047494;28;20036;-67
2022/03/18 04:38:19;;;;;;;14.02;7.55;;;;;;;;;;5047401;28;20408;-67
2022/03/18 04:40:45;;;;;;;12.48;7.13;;;;;;;;;;5047405;28;20082;-67
2022/03/18 04:43:11;;;;;;;15.98;6.93;;;;;;;;;;5065780;28;20526;-67
2022/03/18 04:45:37;;;;;;;15.13;6.47;;;;;;;;;;5064264;28;20131;-67
2022/03/18 04:48:04;;;;;;;16.08;7.10;;;;;;;;;;5066620;28;20044;-67
2022/03/18 04:50:30;;;;;;;13.80;7.38;;;;;;;;;;5066098;28;20046;-67
2022/03/18 04:52:57;;;;;;;15.77;7.38;;;;;;;;;;5066612;28;20484;-67
2022/03/18 04:55:23;;;;;;;12.30;7.30;;;;;;;;;;5065184;28;20368;-67
2022/03/18 04:57:49;;;;;;;13.52;6.97;;;;;;;;;;5064399;28;20536;-67
2022/03/18 05:00:17;;;;;;;14.25;6.53;;;;;;;;;;5047709;28;20492;-67
2022/03/18 05:02:43;;;;;;;14.80;7.40;;;;;;;;;;5051493;28;20452;-67
2022/03/18 05:05:10;;;;;;;16.05;7.28;;;;;;;;;;5052126;28;20047;-67
2022/03/18 05:07:38;;;;;;;15.20;6.70;;;;;;;;;;5052011;28;20126;-67
2022/03/18 05:10:05;;;;;;;15.18;6.53;;;;;;;;;;5052412;28;20170;-67
2022/03/18 05:12:31;;;;;;;14.27;6.28;;;;;;;;;;5069109;28;20067;-67
2022/03/18 05:14:57;;;;;;;15.43;7.50;;;;;;;;;;5070471;28;20083;-67
2022/03/18 05:17:23;;;;;;;15.68;6.97;;;;;;;;;;5069612;28;20115;-67
2022/03/18 05:19:49;;;;;;;17.50;7.25;;;;;;;;;;5051522;28;20044;-67
2022/03/18 05:22:15;;;;;;;20.48;8.23;;;;;;;;;;5050939;28;20048;-67
2022/03/18 05:24:42;;;;;;;14.77;8.48;;;;;;;;;;5051189;28;20048;-67
2022/03/18 05:27:08;;;;;;;17.10;7.70;;;;;;;;;;5068602;28;20459;-67
2022/03/18 05:29:35;;;;;;;17.02;8.70;;;;;;;;;;5066997;28;20393;-67
2022/03/18 05:32:01;;;;;;;13.68;7.60;;;;;;;;;;5050395;28;20048;-67
2022/03/18 05:34:28;;;;;;;12.00;6.78;;;;;;;;;;5068635;28;20168;-67
2022/03/18 05:36:54;;;;;;;11.93;7.40;;;;;;;;;;5068568;28;20366;-67
2022/03/18 05:39:20;;;;;;;12.18;7.47;;;;;;;;;;5050049;28;20174;-67
2022/03/18 05:41:46;;;;;;;12.13;7.97;;;;;;;;;;5068001;28;20093;-67
2022/03/18 05:44:12;;;;;;;15.10;7.45;;;;;;;;;;5068433;28;20039;-67
2022/03/18 05:46:39;;;;;;;15.13;7.25;;;;;;;;;;5032759;28;20048;-67
2022/03/18 05:49:05;;;;;;;12.80;7.07;;;;;;;;;;5050180;28;20555;-67
2022/03/18 05:51:31;;;;;;;14.02;7.90;;;;;;;;;;5068488;28;20396;-67
2022/03/18 05:53:57;;;;;;;15.43;8.45;;;;;;;;;;5050763;28;20085;-67
2022/03/18 05:59:10;;;;;;;20.02;8.10;;;;;;;;;;5066206;28;20186;-67
2022/03/18 06:01:39;;;;;;;15.95;8.35;;;;;;;;;;5067861;28;20032;-67
2022/03/18 06:04:10;;;;;;;17.17;8.38;;;;;;;;;;5048357;28;20073;-67
2022/03/18 06:06:40;;;;;;;15.55;8.25;;;;;;;;;;5050056;28;20154;-67
2022/03/18 06:11:51;;;;;;;17.60;8.20;;;;;;;;;;5049454;28;20064;-67
2022/03/18 06:14:24;;;;;;;16.63;8.23;;;;;;;;;;5067139;28;20067;-67
2022/03/18 06:16:52;;;;;;;17.92;8.38;;;;;;;;;;5049457;28;20131;-67
2022/03/18 06:19:18;;;;;;;16.30;8.32;;;;;;;;;;5049478;28;20106;-67
2022/03/18 06:21:45;;;;;;;17.50;8.27;;;;;;;;;;5067873;28;20048;-67
2022/03/18 06:24:12;;;;;;;17.25;7.97;;;;;;;;;;5068324;28;20055;-67
2022/03/18 06:26:38;;;;;;;17.80;8.73;;;;;;;;;;5049858;28;20076;-67
2022/03/18 06:29:04;;;;;;;13.90;8.32;;;;;;;;;;5066894;28;20068;-67
2022/03/18 06:31:31;;;;;;;17.90;9.23;;;;;;;;;;5067943;28;20070;-67
2022/03/18 06:33:57;;;;;;;19.25;8.98;;;;;;;;;;5066658;28;20064;-67
2022/03/18 06:36:23;;;;;;;12.82;8.57;;;;;;;;;;5049832;28;20123;-67
2022/03/18 06:38:49;;;;;;;20.35;9.35;;;;;;;;;;5066422;28;20040;-67
2022/03/18 06:41:16;;;;;;;18.73;8.68;;;;;;;;;;5048381;28;20131;-67
2022/03/18 06:43:43;;;;;;;15.95;9.48;;;;;;;;;;5067066;28;20123;-67
2022/03/18 06:46:11;;;;;;;20.13;9.98;;;;;;;;;;5048616;28;20052;-67
2022/03/18 06:48:37;;;;;;;19.05;10.32;;;;;;;;;;5064958;28;20048;-67
2022/03/18 06:51:03;;;;;;;21.13;10.15;;;;;;;;;;5066442;28;20044;-67
2022/03/18 06:53:29;;;;;;;22.48;11.52;;;;;;;;;;5067519;28;20040;-67
2022/03/18 06:55:55;;;;;;;23.15;10.73;;;;;;;;;;5046845;28;20052;-67
2022/03/18 06:58:21;;;;;;;24.02;11.48;;;;;;;;;;5048762;28;20040;-68
2022/03/18 07:00:47;;;;;;;20.80;10.98;;;;;;;;;;5047727;28;20468;-67
2022/03/18 07:03:13;;;;;;;22.00;11.18;;;;;;;;;;5065728;28;20088;-67
2022/03/18 07:05:40;;;;;;;21.50;10.25;;;;;;;;;;5065142;28;20473;-67
2022/03/18 07:08:06;;;;;;;19.65;11.20;;;;;;;;;;5049797;28;20438;-68
2022/03/18 07:10:32;;;;;;;18.73;10.90;;;;;;;;;;5047850;28;20393;-67
2022/03/18 07:12:58;;;;;;;19.15;10.52;;;;;;;;;;5065646;28;20617;-68
2022/03/18 07:15:24;;;;;;;22.05;11.75;;;;;;;;;;5066084;28;20089;-67
2022/03/18 07:17:58;;;;;;;22.45;12.60;;;;;;;;;;5048817;28;20484;-67
2022/03/18 07:20:25;;;;;;;21.92;11.40;;;;;;;;;;5049091;28;20484;-68
2022/03/18 07:23:10;;;;;;;21.63;12.07;;;;;;;;;;5065791;28;20035;-68
2022/03/18 07:25:38;;;;;;;21.27;12.07;;;;;;;;;;5047623;28;20066;-67
2022/03/18 07:28:05;;;;;;;28.65;13.98;;;;;;;;;;5064979;28;20040;-67
2022/03/18 07:30:32;;;;;;;19.17;12.70;;;;;;;;;;5032891;28;20427;-67
2022/03/18 07:32:58;;;;;;;27.73;13.73;;;;;;;;;;5047901;28;20473;-68
2022/03/18 07:35:24;;;;;;;28.13;13.90;;;;;;;;;;5066362;28;20045;-68
2022/03/18 07:37:50;;;;;;;21.95;13.18;;;;;;;;;;5031447;28;20127;-68
2022/03/18 07:40:18;;;;;;;21.67;13.10;;;;;;;;;;5047086;28;20040;-68
2022/03/18 07:42:52;;;;;;;27.20;14.43;;;;;;;;;;5047875;28;20045;-68
2022/03/18 07:45:22;;;;;;;21.10;14.20;;;;;;;;;;5048381;28;20455;-67
2022/03/18 07:47:52;;;;;;;29.10;15.23;;;;;;;;;;5045011;28;20060;-67
2022/03/18 07:50:22;;;;;;;25.98;14.93;;;;;;;;;;5045929;28;20071;-68
2022/03/18 07:52:49;;;;;;;25.50;15.20;;;;;;;;;;5045435;28;20473;-67
2022/03/18 07:55:15;;;;;;;25.75;15.35;;;;;;;;;;5046372;28;20040;-67
2022/03/18 07:57:41;;;;;;;27.42;15.38;;;;;;;;;;5045740;28;20138;-67
2022/03/18 08:00:08;;;;;;;33.85;17.70;;;;;;;;;;5044435;28;20041;-68
2022/03/18 08:02:34;;;;;;;26.95;17.45;;;;;;;;;;5044108;28;20052;-67
2022/03/18 08:05:01;;;;;;;27.58;17.10;;;;;;;;;;5059768;28;20579;-68
2022/03/18 08:07:28;;;;;;;27.05;17.35;;;;;;;;;;5047073;28;20167;-68
2022/03/18 08:09:54;;;;;;;31.48;17.40;;;;;;;;;;5060155;28;20041;-68
2022/03/18 08:12:20;;;;;;;33.50;18.00;;;;;;;;;;5043911;28;20108;-68
2022/03/18 08:14:46;;;;;;;29.30;16.73;;;;;;;;;;5045186;28;20215;-68
2022/03/18 08:17:13;;;;;;;30.27;17.73;;;;;;;;;;5043975;28;20055;-68
2022/03/18 08:19:39;;;;;;;33.75;19.50;;;;;;;;;;5043526;28;20048;-68
2022/03/18 08:22:07;;;;;;;36.80;19.27;;;;;;;;;;5041254;28;20363;-68
2022/03/18 08:24:33;;;;;;;34.40;19.65;;;;;;;;;;5045195;28;20072;-68
2022/03/18 08:26:59;;;;;;;32.97;18.08;;;;;;;;;;5045254;28;20392;-68
2022/03/18 08:29:25;;;;;;;32.20;18.30;;;;;;;;;;5044954;28;20044;-68
2022/03/18 08:31:51;;;;;;;36.15;18.30;;;;;;;;;;5045305;28;20036;-68
2022/03/18 08:34:17;;;;;;;30.58;17.70;;;;;;;;;;5045935;28;20075;-68
2022/03/18 08:36:43;;;;;;;31.55;17.02;;;;;;;;;;5046215;28;20045;-68
2022/03/18 08:39:10;;;;;;;29.92;14.95;;;;;;;;;;5050269;28;20106;-68
2022/03/18 08:41:36;;;;;;;30.92;13.15;;;;;;;;;;5051002;28;20041;-68
2022/03/18 08:44:02;;;;;;;24.98;13.88;;;;;;;;;;5048597;28;20041;-68
2022/03/18 08:46:28;;;;;;;24.60;14.30;;;;;;;;;;5054143;28;20045;-68
2022/03/18 08:48:55;;;;;;;28.88;14.02;;;;;;;;;;5051732;28;20133;-68
2022/03/18 08:51:21;;;;;;;28.30;14.35;;;;;;;;;;5070356;28;20493;-68
2022/03/18 08:53:47;;;;;;;29.77;15.00;;;;;;;;;;5051117;28;20072;-69
2022/03/18 08:56:13;;;;;;;33.97;15.88;;;;;;;;;;5050652;28;20045;-68
2022/03/18 08:58:39;;;;;;;32.67;17.33;;;;;;;;;;5051221;28;20480;-68
2022/03/18 09:01:05;;;;;;;27.35;16.58;;;;;;;;;;5051316;28;20071;-68
2022/03/18 09:03:32;;;;;;;31.13;16.40;;;;;;;;;;5050776;28;20376;-68
2022/03/18 09:05:58;;;;;;;35.15;16.67;;;;;;;;;;5050475;28;20055;-68
2022/03/18 09:08:24;;;;;;;33.88;16.92;;;;;;;;;;5070056;28;20078;-68
2022/03/18 09:10:50;;;;;;;31.63;16.20;;;;;;;;;;5049495;28;20034;-68
2022/03/18 09:13:16;;;;;;;32.13;16.77;;;;;;;;;;5051597;28;20063;-69
2022/03/18 09:15:42;;;;;;;28.75;15.52;;;;;;;;;;5052486;28;20048;-68
2022/03/18 09:18:08;;;;;;;29.70;14.45;;;;;;;;;;5051156;28;20044;-69
2022/03/18 09:20:34;;;;;;;27.35;13.85;;;;;;;;;;5050490;28;20089;-69
2022/03/18 09:23:00;;;;;;;29.17;14.93;;;;;;;;;;5050920;28;20044;-69
2022/03/18 09:25:26;;;;;;;27.17;15.20;;;;;;;;;;5050902;28;20052;-69
2022/03/18 09:27:53;;;;;;;28.15;14.07;;;;;;;;;;5051184;28;20093;-69
2022/03/18 09:30:19;;;;;;;25.20;13.38;;;;;;;;;;5050866;28;20060;-69
2022/03/18 09:32:45;;;;;;;27.30;13.10;;;;;;;;;;5033649;28;20043;-68
2022/03/18 09:35:14;;;;;;;30.95;12.77;;;;;;;;;;5068090;28;20359;-69
2022/03/18 09:37:40;;;;;;;25.00;12.43;;;;;;;;;;5049822;28;20097;-66
2022/03/18 09:40:08;;;;;;;19.45;11.80;;;;;;;;;;5050850;28;20041;-66
2022/03/18 09:42:35;;;;;;;24.55;12.80;;;;;;;;;;5035282;28;20052;-66
2022/03/18 09:45:01;;;;;;;23.55;12.77;;;;;;;;;;5050747;28;20032;-66
2022/03/18 09:47:31;;;;;;;17.98;10.68;;;;;;;;;;5046613;28;20053;-68
2022/03/18 09:49:57;;;;;;;19.40;10.27;;;;;;;;;;5046792;28;20069;-69
2022/03/18 09:52:23;;;;;;;23.02;10.98;;;;;;;;;;5048297;28;20127;-68
2022/03/18 09:54:50;;;;;;;22.63;10.60;;;;;;;;;;5048525;28;20064;-69
2022/03/18 09:57:16;;;;;;;22.58;11.10;;;;;;;;;;5048444;28;20056;-69
2022/03/18 09:59:42;;;;;;;20.40;11.20;;;;;;;;;;5047451;28;20123;-69
2022/03/18 10:02:22;;;;;;;20.05;9.40;;;;;;;;;;5047981;28;20044;-69
2022/03/18 10:05:10;;;;;;;18.13;9.73;;;;;;;;;;5048160;28;20497;-69
2022/03/18 10:07:36;;;;;;;19.73;10.52;;;;;;;;;;5030790;28;20045;-69
2022/03/18 10:10:11;;;;;;;21.42;10.60;;;;;;;;;;5049297;28;20075;-69
2022/03/18 10:12:38;;;;;;;23.17;10.63;;;;;;;;;;5047584;28;20091;-69
2022/03/18 10:15:07;;;;;;;16.67;9.95;;;;;;;;;;5047333;28;20037;-69
2022/03/18 10:17:40;;;;;;;23.20;10.57;;;;;;;;;;5047871;28;20123;-69
2022/03/18 10:20:06;;;;;;;19.50;9.35;;;;;;;;;;5046126;28;20040;-69
2022/03/18 10:22:36;;;;;;;20.48;10.07;;;;;;;;;;5048820;28;20080;-69
2022/03/18 10:25:02;;;;;;;16.02;9.75;;;;;;;;;;5047757;28;20045;-69
2022/03/18 10:27:29;;;;;;;17.30;8.98;;;;;;;;;;5047309;28;20554;-69
2022/03/18 10:29:56;;;;;;;17.38;9.02;;;;;;;;;;5047336;28;20041;-69
2022/03/18 10:32:23;;;;;;;16.05;8.35;;;;;;;;;;5063632;28;20350;-69
2022/03/18 10:37:48;;;;;;;17.17;8.25;;;;;;;;;;5063781;28;20059;-69
2022/03/18 10:40:15;;;;;;;17.23;8.52;;;;;;;;;;5047260;28;20378;-70
2022/03/18 10:42:41;;;;;;;18.38;8.75;;;;;;;;;;5046851;28;20127;-69
2022/03/18 10:45:08;;;;;;;16.58;9.00;;;;;;;;;;5048141;28;20043;-69
2022/03/18 10:47:37;;;;;;;17.85;9.00;;;;;;;;;;5061401;28;20114;-69
2022/03/18 10:50:16;;;;;;;22.38;9.43;;;;;;;;;;5050305;28;20047;-69
2022/03/18 10:52:48;;;;;;;18.30;9.73;;;;;;;;;;5067831;28;20420;-70
2022/03/18 10:55:25;;;;;;;19.45;9.65;;;;;;;;;;5049893;28;20084;-70
2022/03/18 10:58:29;;;;;;;19.30;9.35;;;;;;;;;;5049808;28;20129;-70
2022/03/18 11:00:58;;;;;;;18.33;9.13;;;;;;;;;;4982672;28;20087;-73
2022/03/18 11:03:25;;;;;;;16.20;8.43;;;;;;;;;;5051551;28;20106;-71
2022/03/18 11:05:51;;;;;;;17.90;8.40;;;;;;;;;;5033442;28;20044;-70
2022/03/18 11:08:31;;;;;;;18.55;9.00;;;;;;;;;;5031389;28;20048;-69
2022/03/18 11:11:11;;;;;;;16.20;9.13;;;;;;;;;;5067068;28;20040;-70
2022/03/18 11:13:51;;;;;;;20.05;9.20;;;;;;;;;;5048494;28;20084;-72
2022/03/18 11:16:18;;;;;;;19.58;9.65;;;;;;;;;;5048348;28;20048;-71
2022/03/18 11:18:45;;;;;;;20.92;8.57;;;;;;;;;;5047331;28;20073;-70
2022/03/18 11:21:11;;;;;;;16.40;8.20;;;;;;;;;;5047394;28;20059;-70
2022/03/18 11:23:39;;;;;;;13.80;7.95;;;;;;;;;;5066461;28;20041;-70
2022/03/18 11:26:05;;;;;;;16.42;8.00;;;;;;;;;;5047261;28;20053;-70
2022/03/18 11:28:32;;;;;;;12.95;8.20;;;;;;;;;;5048956;28;20385;-70
2022/03/18 11:31:20;;;;;;;19.10;7.90;;;;;;;;;;5047156;28;20033;-71
2022/03/18 11:34:05;;;;;;;14.38;8.43;;;;;;;;;;5047445;28;20063;-71
2022/03/18 11:36:31;;;;;;;17.70;8.38;;;;;;;;;;5032260;28;20151;-70
2022/03/18 11:38:58;;;;;;;14.80;8.65;;;;;;;;;;5047380;28;20044;-71
2022/03/18 11:41:26;;;;;;;16.20;7.88;;;;;;;;;;5066871;28;20040;-71
2022/03/18 11:43:52;;;;;;;17.05;8.55;;;;;;;;;;5066356;28;20048;-71
2022/03/18 11:46:25;;;;;;;15.60;7.75;;;;;;;;;;5047113;28;20497;-71
2022/03/18 11:48:52;;;;;;;13.25;7.22;;;;;;;;;;5044669;28;20079;-71
2022/03/18 11:51:34;;;;;;;11.93;6.88;;;;;;;;;;5045926;28;20047;-71
2022/03/18 11:54:00;;;;;;;18.17;7.97;;;;;;;;;;5047470;28;20055;-70
2022/03/18 11:56:45;;;;;;;14.55;8.05;;;;;;;;;;5049496;28;20044;-70
2022/03/18 12:01:53;;;;;;;16.42;7.75;;;;;;;;;;5047532;28;20040;-70
2022/03/18 12:04:31;;;;;;;13.02;7.45;;;;;;;;;;5046945;28;20768;-70
2022/03/18 12:07:16;;;;;;;10.88;6.40;;;;;;;;;;5048526;28;20059;-70
2022/03/18 12:09:52;;;;;;;12.82;6.28;;;;;;;;;;5048259;28;20037;-71
2022/03/18 12:12:19;;;;;;;15.07;7.07;;;;;;;;;;5047112;28;20140;-70
2022/03/18 12:14:45;;;;;;;11.27;6.32;;;;;;;;;;5047049;28;20068;-70
2022/03/18 12:17:11;;;;;;;11.88;5.88;;;;;;;;;;5047474;28;20131;-70
2022/03/18 12:19:38;;;;;;;11.40;4.78;;;;;;;;;;5032084;28;20063;-71
2022/03/18 12:22:04;;;;;;;13.98;4.80;;;;;;;;;;5065882;28;20028;-70
2022/03/18 12:24:30;;;;;;;13.63;5.75;;;;;;;;;;5048142;28;20119;-70
2022/03/18 12:26:56;;;;;;;10.07;4.80;;;;;;;;;;5047585;28;20075;-70
2022/03/18 12:29:26;;;;;;;10.50;4.63;;;;;;;;;;5046851;28;20041;-70
2022/03/18 12:32:16;;;;;;;14.90;4.80;;;;;;;;;;5032125;28;20119;-70
2022/03/18 12:34:50;;;;;;;8.57;3.50;;;;;;;;;;5048137;28;20036;-70
2022/03/18 12:37:20;;;;;;;10.52;3.65;;;;;;;;;;5066878;28;20492;-70
2022/03/18 12:39:46;;;;;;;8.02;4.07;;;;;;;;;;5048412;28;20053;-70
2022/03/18 12:42:12;;;;;;;11.02;4.00;;;;;;;;;;5048641;28;20127;-70
2022/03/18 12:44:44;;;;;;;8.63;4.22;;;;;;;;;;5048559;28;20032;-70
2022/03/18 12:47:10;;;;;;;10.25;3.90;;;;;;;;;;5047394;28;20044;-70
2022/03/18 12:49:37;;;;;;;11.82;3.90;;;;;;;;;;5047715;28;20040;-70
2022/03/18 12:52:08;;;;;;;9.93;4.03;;;;;;;;;;5066022;28;20040;-70
2022/03/18 12:54:34;;;;;;;8.18;4.13;;;;;;;;;;5031686;28;20036;-70
2022/03/18 12:57:02;;;;;;;11.18;3.97;;;;;;;;;;5048333;28;20055;-70
2022/03/18 12:59:29;;;;;;;7.55;4.43;;;;;;;;;;5048152;28;20050;-70
2022/03/18 13:01:56;;;;;;;9.73;4.53;;;;;;;;;;5065232;28;20605;-70
2022/03/18 13:04:22;;;;;;;10.65;4.72;;;;;;;;;;5064448;28;20056;-71
2022/03/18 13:06:56;;;;;;;9.65;4.25;;;;;;;;;;5046465;28;20052;-69
2022/03/18 13:09:22;;;;;;;9.98;4.00;;;;;;;;;;5045768;28;20542;-69
2022/03/18 13:11:49;;;;;;;9.77;3.67;;;;;;;;;;5046210;28;20051;-69
2022/03/18 13:14:28;;;;;;;8.48;3.40;;;;;;;;;;5047279;28;20044;-69
2022/03/18 13:16:54;;;;;;;9.80;2.90;;;;;;;;;;5064491;28;20046;-69
2022/03/18 13:19:20;;;;;;;10.50;3.42;;;;;;;;;;5030907;28;20388;-68
2022/03/18 13:21:49;;;;;;;12.20;3.58;;;;;;;;;;5046707;28;20049;-69
2022/03/18 13:24:15;;;;;;;8.35;3.13;;;;;;;;;;5068374;28;20420;-69
2022/03/18 13:26:45;;;;;;;13.35;4.13;;;;;;;;;;5048799;28;20048;-69
2022/03/18 13:29:12;;;;;;;11.85;4.30;;;;;;;;;;5049020;28;20037;-69
2022/03/18 13:34:33;;;;;;;16.98;4.85;;;;;;;;;;5067681;28;20051;-69
2022/03/18 13:36:59;;;;;;;;;;;;;;;;;;5069392;28;20068;-68
2022/03/18 13:39:26;;;;;;;11.82;4.30;;;;;;;;;;5050453;28;19962;-69
2022/03/18 13:41:55;;;;;;;10.25;4.18;;;;;;;;;;5066964;28;20082;-69
2022/03/18 13:44:23;;;;;;;10.27;4.28;;;;;;;;;;5050355;28;20078;-69
2022/03/18 13:46:58;;;;;;;10.70;4.63;;;;;;;;;;5050510;28;20102;-68
2022/03/18 13:49:24;;;;;;;11.90;4.85;;;;;;;;;;5069506;28;20040;-69
2022/03/18 13:51:59;;;;;;;10.05;4.90;;;;;;;;;;5050026;28;20123;-69
2022/03/18 13:54:25;;;;;;;12.73;4.40;;;;;;;;;;5051422;28;20048;-69
2022/03/18 13:56:58;;;;;;;8.00;4.25;;;;;;;;;;5050158;28;20037;-70
2022/03/18 13:59:25;;;;;;;12.05;4.40;;;;;;;;;;5068086;28;20032;-69
2022/03/18 14:01:57;;;;;;;8.27;3.65;;;;;;;;;;5068325;28;20369;-69
2022/03/18 14:04:23;;;;;;;9.02;3.05;;;;;;;;;;5051290;28;20036;-69
2022/03/18 14:06:56;;;;;;;7.65;3.33;;;;;;;;;;5067865;28;20032;-68
2022/03/18 14:09:22;;;;;;;10.80;3.78;;;;;;;;;;5067782;28;20081;-69
2022/03/18 14:14:36;;;;;;;8.20;3.58;;;;;;;;;;5053633;28;20048;-70
2022/03/18 14:17:09;;;;;;;9.95;3.55;;;;;;;;;;5070827;28;20044;-71
2022/03/18 14:20:08;;;;;;;7.75;3.85;;;;;;;;;;5055508;28;20076;-70
2022/03/18 14:22:45;;;;;;;10.60;3.22;;;;;;;;;;5038491;28;20369;-71
2022/03/18 14:25:12;;;;;;;7.68;3.05;;;;;;;;;;5031261;28;20087;-71
2022/03/18 14:27:46;;;;;;;10.32;3.80;;;;;;;;;;5052638;28;20556;-71
2022/03/18 14:30:17;;;;;;;9.88;3.10;;;;;;;;;;5073053;28;20082;-71
2022/03/18 14:32:49;;;;;;;7.57;3.17;;;;;;;;;;5057689;28;20040;-71
2022/03/18 14:35:16;;;;;;;8.48;3.40;;;;;;;;;;5059542;28;20041;-71
2022/03/18 14:37:42;;;;;;;10.32;3.40;;;;;;;;;;5056951;28;20044;-71
2022/03/18 14:40:09;;;;;;;10.43;2.97;;;;;;;;;;5073981;28;20115;-71
2022/03/18 14:42:37;;;;;;;8.43;3.05;;;;;;;;;;5036299;28;20493;-71
2022/03/18 14:45:03;;;;;;;9.82;3.78;;;;;;;;;;5055803;28;20052;-71
2022/03/18 14:47:29;;;;;;;7.88;2.67;;;;;;;;;;5055032;28;20400;-71
2022/03/18 14:49:56;;;;;;;7.57;2.80;;;;;;;;;;5073356;28;20412;-71
2022/03/18 14:52:23;;;;;;;7.95;2.90;;;;;;;;;;5038052;28;20127;-71
2022/03/18 14:57:34;;;;;;;5.90;2.58;;;;;;;;;;5053774;28;20048;-72
2022/03/18 15:00:00;;;;;;;8.15;2.80;;;;;;;;;;5068579;28;20078;-72
2022/03/18 15:02:27;;;;;;;6.68;3.08;;;;;;;;;;5062853;28;20044;-72